Time;durP1;ratioP1;P1;durP2;ratioP2;P2;SDS_P1;SDS_P2;PMS_P1;PMS_P2;Temp;Humidity;BMP_temperature;BMP_pressure;BME280_temperature;BME280_humidity;BME280_pressure;Samples;Min_cycle;Max_cycle;Signal;HPM_P1;HPM_P2
2022/03/21 00:01:35;;;;;;;;;;;7.10;99.90;;;;;;5018612;28;19929;-78
2022/03/21 00:04:02;;;;;;;;;;;7.10;99.90;;;;;;5021390;28;19933;-79
2022/03/21 00:06:29;;;;;;;;;;;7.20;99.90;;;;;;5021941;28;19925;-78
2022/03/21 00:08:55;;;;;;;;;;;7.10;99.90;;;;;;5021457;28;20608;-79
2022/03/21 00:11:24;;;;;;;;;;;7.10;99.90;;;;;;5021985;28;19979;-78
2022/03/21 00:13:53;;;;;;;;;;;7.10;99.90;;;;;;5022208;28;19925;-78
2022/03/21 00:16:20;;;;;;;;;;;7.00;99.90;;;;;;5021802;28;19992;-79
2022/03/21 00:18:47;;;;;;;;;;;7.00;99.90;;;;;;5022221;28;19926;-78
2022/03/21 00:21:14;;;;;;;;;;;7.10;99.90;;;;;;5022318;28;19925;-79
2022/03/21 00:23:41;;;;;;;;;;;7.10;99.90;;;;;;5021680;28;19925;-79
2022/03/21 00:26:07;;;;;;;;;;;7.10;99.90;;;;;;5021232;28;20308;-78
2022/03/21 00:28:36;;;;;;;;;;;7.00;99.90;;;;;;5020529;28;19929;-78
2022/03/21 00:31:04;;;;;;;;;;;7.00;99.90;;;;;;5020009;28;19925;-79
2022/03/21 00:33:31;;;;;;;;;;;6.90;99.90;;;;;;5021006;28;19961;-79
2022/03/21 00:35:59;;;;;;;;;;;6.90;99.90;;;;;;5021242;28;19926;-78
2022/03/21 00:38:26;;;;;;;;;;;6.90;99.90;;;;;;5019795;28;19929;-78
2022/03/21 00:40:53;;;;;;;;;;;6.80;99.90;;;;;;5019265;28;20424;-78
2022/03/21 00:43:22;;;;;;;;;;;6.70;99.90;;;;;;5021098;28;19926;-78
2022/03/21 00:45:52;;;;;;;;;;;6.70;99.90;;;;;;5021266;28;19929;-78
2022/03/21 00:48:19;;;;;;;;;;;6.80;99.90;;;;;;5020874;28;19941;-78
2022/03/21 00:50:46;;;;;;;;;;;6.80;99.90;;;;;;5020923;28;20431;-79
2022/03/21 00:53:12;;;;;;;;;;;6.90;99.90;;;;;;5021146;28;19933;-78
2022/03/21 00:55:39;;;;;;;;;;;6.90;99.90;;;;;;5020726;28;20250;-76
2022/03/21 00:58:06;;;;;;;;;;;6.90;99.90;;;;;;5020270;28;19936;-79
2022/03/21 01:00:33;;;;;;;;;;;6.90;99.90;;;;;;5020168;28;19926;-78
2022/03/21 01:03:02;;;;;;;;;;;7.00;99.90;;;;;;5021618;28;19935;-79
2022/03/21 01:05:30;;;;;;;;;;;7.00;99.90;;;;;;5021213;28;19925;-78
2022/03/21 01:07:57;;;;;;;;;;;7.00;99.90;;;;;;5021004;28;19926;-79
2022/03/21 01:10:25;;;;;;;;;;;7.00;99.90;;;;;;5021373;28;19932;-79
2022/03/21 01:12:52;;;;;;;;;;;7.10;99.90;;;;;;5021413;28;19948;-78
2022/03/21 01:15:20;;;;;;;;;;;7.10;99.90;;;;;;5019693;28;19925;-79
2022/03/21 01:17:47;;;;;;;;;;;7.10;99.90;;;;;;5021762;28;19932;-78
2022/03/21 01:20:17;;;;;;;;;;;7.20;99.90;;;;;;5020815;28;19933;-78
2022/03/21 01:22:44;;;;;;;;;;;7.20;99.90;;;;;;5021189;28;19925;-78
2022/03/21 01:25:11;;;;;;;;;;;7.10;99.90;;;;;;5020396;28;19932;-78
2022/03/21 01:27:39;;;;;;;;;;;7.10;99.90;;;;;;5021606;28;19925;-79
2022/03/21 01:30:08;;;;;;;;;;;7.00;99.90;;;;;;5020138;28;19925;-80
2022/03/21 01:32:34;;;;;;;;;;;7.00;99.90;;;;;;5021565;28;20390;-78
2022/03/21 01:35:02;;;;;;;;;;;7.00;99.90;;;;;;5021257;28;19925;-78
2022/03/21 01:37:31;;;;;;;;;;;7.00;99.90;;;;;;5021258;28;19925;-78
2022/03/21 01:39:58;;;;;;;;;;;7.00;99.90;;;;;;5020577;28;19925;-78
2022/03/21 01:42:24;;;;;;;;;;;7.00;99.90;;;;;;5020441;28;19925;-78
2022/03/21 01:44:52;;;;;;;;;;;7.00;99.90;;;;;;5019339;28;19925;-79
2022/03/21 01:47:18;;;;;;;;;;;6.90;99.90;;;;;;5020940;28;19925;-78
2022/03/21 01:49:46;;;;;;;;;;;6.90;99.90;;;;;;5021086;28;19952;-78
2022/03/21 01:52:13;;;;;;;;;;;6.90;99.90;;;;;;5021198;28;19925;-79
2022/03/21 01:57:26;;;;;;;;;;;6.90;99.90;;;;;;5020418;28;19929;-78
2022/03/21 01:59:53;;;;;;;;;;;6.90;99.90;;;;;;5020755;28;20385;-79
2022/03/21 02:02:20;;;;;;;;;;;6.90;99.90;;;;;;5021134;28;19925;-79
2022/03/21 02:04:47;;;;;;;;;;;6.90;99.90;;;;;;5021327;28;19929;-79
2022/03/21 02:07:14;;;;;;;;;;;6.90;99.90;;;;;;5019128;28;19926;-79
2022/03/21 02:09:43;;;;;;;;;;;6.80;99.90;;;;;;5013692;28;19926;-79
2022/03/21 02:12:11;;;;;;;;;;;6.80;99.90;;;;;;5020295;28;19925;-79
2022/03/21 02:14:39;;;;;;;;;;;6.80;99.90;;;;;;5019332;28;19930;-78
2022/03/21 02:17:06;;;;;;;;;;;6.80;99.90;;;;;;5020252;28;19925;-79
2022/03/21 02:19:36;;;;;;;;;;;6.70;99.90;;;;;;5015914;28;19929;-78
2022/03/21 02:22:21;;;;;;;;;;;6.70;99.90;;;;;;5014579;28;19926;-79
2022/03/21 02:24:53;;;;;;;;;;;6.70;99.90;;;;;;5019284;28;19948;-79
2022/03/21 02:27:23;;;;;;;;;;;6.60;99.90;;;;;;5019185;28;19932;-78
2022/03/21 02:29:50;;;;;;;;;;;6.60;99.90;;;;;;5019006;28;19932;-78
2022/03/21 02:32:17;;;;;;;;;;;6.50;99.90;;;;;;5021218;28;19929;-79
2022/03/21 02:34:46;;;;;;;;;;;6.50;99.90;;;;;;5020818;28;19926;-79
2022/03/21 02:37:15;;;;;;;;;;;6.50;99.90;;;;;;5019674;28;20317;-78
2022/03/21 02:39:43;;;;;;;;;;;6.50;99.90;;;;;;5018146;28;19926;-78
2022/03/21 02:42:10;;;;;;;;;;;6.40;99.90;;;;;;5019029;28;19929;-78
2022/03/21 02:44:39;;;;;;;;;;;6.40;99.90;;;;;;5018015;28;19929;-79
2022/03/21 02:47:06;;;;;;;;;;;6.40;99.90;;;;;;5018547;28;19926;-78
2022/03/21 02:49:33;;;;;;;;;;;6.40;99.90;;;;;;5018156;28;19926;-78
2022/03/21 02:52:00;;;;;;;;;;;6.40;99.90;;;;;;5018126;28;19932;-78
2022/03/21 02:54:27;;;;;;;;;;;6.40;99.90;;;;;;5017749;28;19929;-78
2022/03/21 02:56:54;;;;;;;;;;;6.40;99.90;;;;;;5017773;28;19925;-79
2022/03/21 02:59:21;;;;;;;;;;;6.40;99.90;;;;;;5017138;28;19925;-79
2022/03/21 03:01:53;;;;;;;;;;;6.50;99.90;;;;;;5018846;28;19948;-78
2022/03/21 03:04:20;;;;;;;;;;;6.50;99.90;;;;;;5018255;28;19925;-78
2022/03/21 03:06:47;;;;;;;;;;;6.50;99.90;;;;;;5018398;28;19945;-78
2022/03/21 03:09:14;;;;;;;;;;;6.50;99.90;;;;;;5017688;28;19926;-78
2022/03/21 03:11:41;;;;;;;;;;;6.50;99.90;;;;;;5033901;28;19926;-78
2022/03/21 03:14:08;;;;;;;;;;;6.40;99.90;;;;;;5017706;28;19925;-79
2022/03/21 03:16:35;;;;;;;;;;;6.40;99.90;;;;;;5017749;28;19929;-79
2022/03/21 03:19:04;;;;;;;;;;;6.30;99.90;;;;;;5016435;28;19926;-78
2022/03/21 03:21:34;;;;;;;;;;;6.30;99.90;;;;;;5017221;28;19926;-78
2022/03/21 03:24:01;;;;;;;;;;;6.20;99.90;;;;;;5016813;28;20435;-79
2022/03/21 03:26:28;;;;;;;;;;;6.20;99.90;;;;;;5016778;28;19925;-79
2022/03/21 03:28:55;;;;;;;;;;;6.20;99.90;;;;;;5016462;28;19926;-78
2022/03/21 03:31:22;;;;;;;;;;;6.10;99.90;;;;;;5017393;28;19949;-79
2022/03/21 03:33:49;;;;;;;;;;;6.10;99.90;;;;;;5059258;22;20016;-79
2022/03/21 03:36:17;;;;;;;;;;;6.00;99.90;;;;;;5033355;28;20189;-78
2022/03/21 03:38:44;;;;;;;;;;;6.00;99.90;;;;;;5035035;28;19925;-79
2022/03/21 03:41:10;;;;;;;;;;;5.90;99.90;;;;;;5053639;28;19990;-80
2022/03/21 03:43:37;;;;;;;;;;;5.80;99.90;;;;;;5036932;28;19964;-79
2022/03/21 03:46:04;;;;;;;;;;;5.80;99.90;;;;;;5037024;28;19925;-79
2022/03/21 03:48:31;;;;;;;;;;;5.70;99.90;;;;;;5036712;28;19929;-78
2022/03/21 03:50:58;;;;;;;;;;;5.70;99.90;;;;;;5036008;28;19928;-79
2022/03/21 03:53:26;;;;;;;;;;;5.60;99.90;;;;;;5036169;28;19932;-79
2022/03/21 03:55:53;;;;;;;;;;;5.60;99.90;;;;;;5036619;28;19971;-79
2022/03/21 03:58:19;;;;;;;;;;;5.60;99.90;;;;;;5036777;28;19925;-78
2022/03/21 04:00:46;;;;;;;;;;;5.50;99.90;;;;;;5036258;28;20423;-77
2022/03/21 04:05:57;;;;;;;;;;;5.50;99.90;;;;;;5036401;28;19925;-79
2022/03/21 04:08:26;;;;;;;;;;;5.40;99.90;;;;;;5036782;28;19925;-79
2022/03/21 04:10:53;;;;;;;;;;;5.40;99.90;;;;;;5035930;28;19925;-80
2022/03/21 04:13:20;;;;;;;;;;;5.30;99.90;;;;;;5036450;28;19971;-79
2022/03/21 04:15:46;;;;;;;;;;;5.30;99.90;;;;;;5036519;28;19928;-79
2022/03/21 04:18:13;;;;;;;;;;;5.30;99.90;;;;;;5036262;28;19932;-80
2022/03/21 04:20:40;;;;;;;;;;;5.20;99.90;;;;;;5036010;28;20383;-79
2022/03/21 04:23:07;;;;;;;;;;;5.20;99.90;;;;;;5036140;28;20395;-79
2022/03/21 04:25:35;;;;;;;;;;;5.20;99.90;;;;;;5035994;28;19931;-79
2022/03/21 04:28:07;;;;;;;;;;;5.20;99.90;;;;;;5036172;28;19925;-79
2022/03/21 04:30:34;;;;;;;;;;;5.20;99.90;;;;;;5035836;28;19924;-80
2022/03/21 04:33:01;;;;;;;;;;;5.20;99.90;;;;;;5036236;28;19936;-79
2022/03/21 04:35:27;;;;;;;;;;;5.10;99.90;;;;;;5036149;28;19974;-78
2022/03/21 04:37:55;;;;;;;;;;;5.10;99.90;;;;;;5035745;28;19925;-80
2022/03/21 04:40:23;;;;;;;;;;;5.10;99.90;;;;;;5035608;28;19925;-79
2022/03/21 04:42:51;;;;;;;;;;;5.10;99.90;;;;;;5035571;28;20384;-77
2022/03/21 04:45:18;;;;;;;;;;;5.00;99.90;;;;;;5035761;28;19929;-78
2022/03/21 04:47:45;;;;;;;;;;;5.00;99.90;;;;;;5036136;28;19925;-80
2022/03/21 04:50:12;;;;;;;;;;;5.00;99.90;;;;;;5034434;28;19931;-79
2022/03/21 04:52:39;;;;;;;;;;;4.90;99.90;;;;;;5035540;28;19928;-79
2022/03/21 04:55:07;;;;;;;;;;;4.90;99.90;;;;;;5035188;28;19925;-78
2022/03/21 04:57:34;;;;;;;;;;;4.90;99.90;;;;;;5036001;28;19974;-78
2022/03/21 05:00:03;;;;;;;;;;;4.80;99.90;;;;;;5035000;28;19925;-79
2022/03/21 05:02:30;;;;;;;;;;;4.80;99.90;;;;;;5035805;28;19932;-78
2022/03/21 05:04:56;;;;;;;;;;;4.70;99.90;;;;;;5035698;28;19925;-79
2022/03/21 05:07:24;;;;;;;;;;;4.70;99.90;;;;;;5035755;28;19925;-78
2022/03/21 05:09:51;;;;;;;;;;;4.60;99.90;;;;;;5035026;28;19964;-77
2022/03/21 05:12:18;;;;;;;;;;;4.60;99.90;;;;;;5035541;28;19924;-79
2022/03/21 05:14:45;;;;;;;;;;;4.60;99.90;;;;;;5035482;28;20327;-78
2022/03/21 05:17:17;;;;;;;;;;;4.50;99.90;;;;;;5035729;28;20474;-79
2022/03/21 05:19:44;;;;;;;;;;;4.50;99.90;;;;;;5034804;28;19929;-78
2022/03/21 05:22:11;;;;;;;;;;;4.50;99.90;;;;;;5035412;28;19929;-78
2022/03/21 05:35:52;;;;;;;;;;;4.40;99.90;;;;;;5034798;28;19966;-79
2022/03/21 05:35:55;;;;;;;;;;;4.30;99.90;;;;;;5035180;28;19925;-77
2022/03/21 05:38:22;;;;;;;;;;;4.20;99.90;;;;;;5034867;28;19964;-77
2022/03/21 05:40:49;;;;;;;;;;;4.20;99.90;;;;;;5034210;28;20035;-79
2022/03/21 05:43:16;;;;;;;;;;;4.20;99.90;;;;;;5034911;28;19929;-77
2022/03/21 05:45:43;;;;;;;;;;;4.20;99.90;;;;;;5035264;28;19982;-77
2022/03/21 05:50:55;;;;;;;;;;;4.10;99.90;;;;;;5036152;28;20070;-80
2022/03/21 05:53:22;;;;;;;;;;;4.10;99.90;;;;;;5036416;28;19932;-78
2022/03/21 05:55:48;;;;;;;;;;;4.10;99.90;;;;;;5035492;28;19924;-78
2022/03/21 05:58:15;;;;;;;;;;;4.10;99.90;;;;;;5035417;28;19925;-78
2022/03/21 06:00:42;;;;;;;;;;;4.10;99.90;;;;;;5033963;28;19979;-79
2022/03/21 06:03:10;;;;;;;;;;;4.10;99.90;;;;;;5029908;28;19924;-78
2022/03/21 06:05:40;;;;;;;;;;;4.10;99.90;;;;;;5035986;28;20287;-78
2022/03/21 06:08:08;;;;;;;;;;;4.20;99.90;;;;;;5032383;28;19925;-78
2022/03/21 06:10:36;;;;;;;;;;;4.30;99.90;;;;;;5025546;28;19925;-78
2022/03/21 06:13:05;;;;;;;;;;;4.30;99.90;;;;;;5051832;28;19925;-78
2022/03/21 06:15:32;;;;;;;;;;;4.30;99.90;;;;;;5051625;28;19930;-77
2022/03/21 06:18:01;;;;;;;;;;;4.40;99.90;;;;;;5051476;28;19925;-78
2022/03/21 06:20:28;;;;;;;;;;;4.40;99.90;;;;;;5034382;28;19928;-78
2022/03/21 06:22:57;;;;;;;;;;;4.50;99.90;;;;;;5051252;28;19929;-78
2022/03/21 06:25:24;;;;;;;;;;;4.50;99.90;;;;;;5051776;28;19924;-78
2022/03/21 06:27:51;;;;;;;;;;;4.50;99.90;;;;;;5052185;28;19931;-79
2022/03/21 06:30:18;;;;;;;;;;;4.50;99.90;;;;;;5035048;28;19929;-79
2022/03/21 06:32:45;;;;;;;;;;;4.40;99.90;;;;;;5053724;28;19931;-78
2022/03/21 06:35:12;;;;;;;;;;;4.40;99.90;;;;;;5051028;28;20257;-77
2022/03/21 06:37:39;;;;;;;;;;;4.40;99.90;;;;;;5051005;28;20380;-76
2022/03/21 06:40:08;;;;;;;;;;;4.40;99.90;;;;;;5050728;28;20031;-78
2022/03/21 06:42:35;;;;;;;;;;;4.40;99.90;;;;;;5051058;28;19925;-78
2022/03/21 06:45:02;;;;;;;;;;;4.40;99.90;;;;;;5034714;28;20330;-78
2022/03/21 06:47:28;;;;;;;;;;;4.40;99.90;;;;;;5051104;28;19936;-78
2022/03/21 06:49:55;;;;;;;;;;;4.50;99.90;;;;;;5051088;28;19925;-78
2022/03/21 06:52:22;;;;;;;;;;;4.50;99.90;;;;;;5051888;28;20022;-78
2022/03/21 06:54:50;;;;;;;;;;;4.60;99.90;;;;;;5051430;28;19925;-79
2022/03/21 06:57:18;;;;;;;;;;;4.70;99.90;;;;;;5051404;28;19932;-77
2022/03/21 06:59:45;;;;;;;;;;;4.80;99.90;;;;;;5036417;28;19925;-79
2022/03/21 07:02:12;;;;;;;;;;;4.90;99.90;;;;;;5054558;28;19925;-78
2022/03/21 07:04:39;;;;;;;;;;;5.00;99.90;;;;;;5048935;28;19936;-78
2022/03/21 07:07:06;;;;;;;;;;;5.10;99.90;;;;;;5038502;28;20343;-77
2022/03/21 07:09:32;;;;;;;;;;;5.20;99.90;;;;;;5035287;28;19931;-79
2022/03/21 07:11:59;;;;;;;;;;;5.30;99.90;;;;;;5033405;28;19931;-75
2022/03/21 07:14:27;;;;;;;;;;;5.40;99.90;;;;;;5070523;28;19925;-77
2022/03/21 07:16:54;;;;;;;;;;;5.60;99.90;;;;;;5037565;28;19925;-78
2022/03/21 07:19:21;;;;;;;;;;;5.70;99.90;;;;;;5054753;28;19925;-77
2022/03/21 07:21:48;;;;;;;;;;;5.80;99.90;;;;;;5037760;28;19945;-77
2022/03/21 07:24:15;;;;;;;;;;;5.90;99.90;;;;;;5037992;28;19925;-76
2022/03/21 07:26:42;;;;;;;;;;;6.00;99.90;;;;;;5071939;28;19968;-77
2022/03/21 07:29:11;;;;;;;;;;;6.10;99.90;;;;;;5070701;28;19924;-77
2022/03/21 07:31:39;;;;;;;;;;;6.30;99.90;;;;;;5030627;28;20320;-77
2022/03/21 07:34:07;;;;;;;;;;;6.40;99.90;;;;;;5037444;28;19939;-76
2022/03/21 07:36:34;;;;;;;;;;;6.50;99.90;;;;;;5038004;28;19929;-75
2022/03/21 07:39:01;;;;;;;;;;;6.60;99.90;;;;;;5037351;28;19925;-76
2022/03/21 07:41:28;;;;;;;;;;;6.70;99.90;;;;;;5037432;28;19924;-77
2022/03/21 07:43:57;;;;;;;;;;;6.80;99.90;;;;;;5037420;28;19924;-77
2022/03/21 07:49:09;;;;;;;;;;;7.10;99.90;;;;;;5034848;28;20388;-79
2022/03/21 07:51:36;;;;;;;;;;;7.20;99.90;;;;;;5038660;28;19960;-79
2022/03/21 07:54:03;;;;;;;;;;;7.30;99.90;;;;;;5041539;28;19925;-78
2022/03/21 07:56:30;;;;;;;;;;;7.50;99.90;;;;;;5036414;28;19935;-78
2022/03/21 07:58:59;;;;;;;;;;;7.60;99.90;;;;;;5050885;28;19932;-78
2022/03/21 08:01:28;;;;;;;;;;;7.70;99.90;;;;;;5037437;28;19967;-79
2022/03/21 08:03:54;;;;;;;;;;;7.90;99.90;;;;;;5037585;28;19925;-78
2022/03/21 08:06:23;;;;;;;;;;;8.00;99.90;;;;;;5031549;28;19937;-78
2022/03/21 08:08:50;;;;;;;;;;;8.20;99.90;;;;;;5035761;28;19935;-77
2022/03/21 08:11:18;;;;;;;;;;;8.40;99.90;;;;;;5036284;28;19951;-77
2022/03/21 08:13:44;;;;;;;;;;;8.60;99.90;;;;;;5036077;28;19932;-77
2022/03/21 08:16:11;;;;;;;;;;;8.70;99.90;;;;;;5066274;28;19933;-77
2022/03/21 08:18:40;;;;;;;;;;;8.90;99.90;;;;;;5033006;28;19933;-76
2022/03/21 08:21:07;;;;;;;;;;;9.10;99.90;;;;;;5034994;28;19924;-76
2022/03/21 08:23:36;;;;;;;;;;;9.20;99.90;;;;;;5036803;28;19960;-75
2022/03/21 08:26:03;;;;;;;;;;;9.30;99.90;;;;;;5053368;28;19928;-75
2022/03/21 08:28:30;;;;;;;;;;;9.40;99.90;;;;;;5052877;28;19940;-78
2022/03/21 08:30:56;;;;;;;;;;;9.60;99.90;;;;;;5031758;28;19978;-78
2022/03/21 08:33:23;;;;;;;;;;;9.60;99.90;;;;;;5032965;28;19925;-79
2022/03/21 08:35:50;;;;;;;;;;;9.70;99.90;;;;;;5035907;28;19929;-79
2022/03/21 08:38:17;;;;;;;;;;;9.80;99.90;;;;;;5036509;28;19925;-80
2022/03/21 08:40:47;;;;;;;;;;;9.90;99.90;;;;;;5037754;28;20399;-78
2022/03/21 08:43:14;;;;;;;;;;;10.00;99.90;;;;;;5037772;28;19929;-79
2022/03/21 08:45:41;;;;;;;;;;;10.20;99.90;;;;;;5035414;28;19943;-80
2022/03/21 08:48:08;;;;;;;;;;;10.30;99.90;;;;;;5034586;28;19925;-80
2022/03/21 08:50:37;;;;;;;;;;;10.30;99.90;;;;;;5029342;28;19933;-79
2022/03/21 08:53:04;;;;;;;;;;;10.40;99.90;;;;;;5035233;28;19925;-80
2022/03/21 08:55:30;;;;;;;;;;;10.50;99.90;;;;;;5045807;28;19929;-79
2022/03/21 08:57:59;;;;;;;;;;;10.60;99.90;;;;;;5036493;28;19925;-79
2022/03/21 09:00:26;;;;;;;;;;;10.70;99.90;;;;;;5035374;28;20032;-79
2022/03/21 09:02:54;;;;;;;;;;;10.80;99.90;;;;;;5051776;28;19925;-79
2022/03/21 09:05:21;;;;;;;;;;;10.90;99.90;;;;;;5052317;28;19924;-79
2022/03/21 09:07:48;;;;;;;;;;;11.00;99.90;;;;;;5052260;28;19925;-78
2022/03/21 09:10:16;;;;;;;;;;;11.00;99.90;;;;;;5034652;28;20360;-79
2022/03/21 09:12:43;;;;;;;;;;;11.10;99.90;;;;;;5035451;28;19952;-79
2022/03/21 09:15:12;;;;;;;;;;;11.20;99.90;;;;;;5035167;28;19924;-78
2022/03/21 09:17:39;;;;;;;;;;;11.40;99.90;;;;;;5035386;28;20377;-80
2022/03/21 09:20:06;;;;;;;;;;;11.50;99.90;;;;;;5035498;28;19924;-80
2022/03/21 09:22:33;;;;;;;;;;;11.60;99.90;;;;;;5036536;28;19924;-80
2022/03/21 09:25:00;;;;;;;;;;;11.70;99.90;;;;;;5036854;28;19925;-80
2022/03/21 09:27:27;;;;;;;;;;;11.90;99.90;;;;;;5036590;28;20022;-80
2022/03/21 09:29:54;;;;;;;;;;;12.10;99.90;;;;;;5035011;28;19932;-80
2022/03/21 09:32:22;;;;;;;;;;;12.20;99.90;;;;;;5036510;28;19925;-79
2022/03/21 09:34:49;;;;;;;;;;;12.30;99.90;;;;;;5036591;28;20344;-80
2022/03/21 09:37:16;;;;;;;;;;;12.40;99.90;;;;;;5035370;28;19965;-79
2022/03/21 09:39:43;;;;;;;;;;;12.50;99.90;;;;;;5035509;28;19925;-79
2022/03/21 09:42:10;;;;;;;;;;;12.50;99.90;;;;;;5035950;28;19924;-80
2022/03/21 09:44:36;;;;;;;;;;;12.70;99.90;;;;;;5035824;28;19933;-79
2022/03/21 09:48:08;;;;;;;;;;;12.90;99.90;;;;;;5035511;28;19928;-79
2022/03/21 09:49:53;;;;;;;;;;;12.90;99.90;;;;;;5034642;28;20408;-79
2022/03/21 09:52:22;;;;;;;;;;;13.00;99.90;;;;;;5052603;28;19937;-79
2022/03/21 09:54:50;;;;;;;;;;;13.10;99.90;;;;;;5051593;28;20368;-79
2022/03/21 09:57:17;;;;;;;;;;;13.30;99.90;;;;;;5035341;28;20399;-79
2022/03/21 09:59:43;;;;;;;;;;;13.50;99.90;;;;;;5035400;28;19994;-79
2022/03/21 10:02:14;;;;;;;;;;;13.70;99.90;;;;;;5052056;28;19925;-79
2022/03/21 10:04:41;;;;;;;;;;;13.80;99.90;;;;;;5052305;28;20043;-79
2022/03/21 10:07:11;;;;;;;;;;;13.90;99.90;;;;;;5052137;28;19932;-79
2022/03/21 10:09:38;;;;;;;;;;;13.90;99.90;;;;;;5051737;28;19924;-79
2022/03/21 10:12:09;;;;;;;;;;;14.10;99.90;;;;;;5038569;28;19925;-78
2022/03/21 10:14:37;;;;;;;;;;;14.30;99.90;;;;;;5035532;28;19929;-79
2022/03/21 10:17:05;;;;;;;;;;;14.50;99.90;;;;;;5035848;28;19925;-79
2022/03/21 10:19:41;;;;;;;;;;;14.60;99.90;;;;;;5033528;28;19955;-79
2022/03/21 10:22:10;;;;;;;;;;;14.80;99.90;;;;;;5035323;28;19931;-78
2022/03/21 10:24:38;;;;;;;;;;;14.90;99.90;;;;;;5054235;28;19924;-80
2022/03/21 10:27:06;;;;;;;;;;;15.10;99.90;;;;;;5052182;28;19925;-79
2022/03/21 10:29:32;;;;;;;;;;;15.10;99.90;;;;;;5035308;28;19948;-79
2022/03/21 10:31:59;;;;;;;;;;;15.30;99.90;;;;;;5036177;28;19953;-80
2022/03/21 10:34:30;;;;;;;;;;;15.30;99.90;;;;;;5053619;28;19925;-79
2022/03/21 10:37:01;;;;;;;;;;;15.50;99.90;;;;;;5053152;28;19925;-80
2022/03/21 10:39:31;;;;;;;;;;;15.70;99.90;;;;;;5052565;28;19924;-79
2022/03/21 10:41:58;;;;;;;;;;;16.00;99.90;;;;;;5052644;28;20391;-79
2022/03/21 10:44:26;;;;;;;;;;;16.10;99.90;;;;;;5052474;28;19968;-78
2022/03/21 10:46:53;;;;;;;;;;;16.30;99.90;;;;;;5052274;28;19925;-79
2022/03/21 10:49:28;;;;;;;;;;;16.50;99.90;;;;;;5052138;28;19971;-79
2022/03/21 10:51:55;;;;;;;;;;;16.70;99.90;;;;;;5052322;28;19925;-79
2022/03/21 10:54:40;;;;;;;;;;;16.90;99.90;;;;;;5039615;28;19932;-80
2022/03/21 10:57:07;;;;;;;;;;;17.00;99.90;;;;;;5035210;28;20420;-80
2022/03/21 10:59:34;;;;;;;;;;;17.10;99.90;;;;;;5037487;28;20012;-80
2022/03/21 11:02:12;;;;;;;;;;;17.30;99.90;;;;;;5035407;28;19929;-80
2022/03/21 11:04:41;;;;;;;;;;;17.50;99.90;;;;;;5035273;28;19925;-80
2022/03/21 11:07:11;;;;;;;;;;;17.70;99.90;;;;;;5034287;28;19932;-78
2022/03/21 11:09:40;;;;;;;;;;;17.80;99.90;;;;;;5033226;28;19971;-77
2022/03/21 11:12:07;;;;;;;;;;;17.90;99.90;;;;;;5033700;28;19924;-78
2022/03/21 11:14:36;;;;;;;;;;;18.10;99.90;;;;;;5069425;28;19931;-78
2022/03/21 11:17:04;;;;;;;;;;;18.40;99.90;;;;;;5041900;28;20281;-79
2022/03/21 11:19:31;;;;;;;;;;;18.60;99.90;;;;;;5075060;28;19925;-79
2022/03/21 11:21:59;;;;;;;;;;;19.00;99.90;;;;;;5039193;28;19925;-79
2022/03/21 11:24:26;;;;;;;;;;;19.10;99.90;;;;;;5038297;28;19928;-79
2022/03/21 11:26:58;;;;;;;;;;;19.20;99.90;;;;;;5073372;28;19986;-80
2022/03/21 11:29:32;;;;;;;;;;;19.40;99.90;;;;;;5039270;28;19986;-78
2022/03/21 11:32:07;;;;;;;;;;;19.30;99.90;;;;;;5036245;28;19928;-78
2022/03/21 11:34:40;;;;;;;;;;;19.50;99.90;;;;;;5027129;28;19932;-78
2022/03/21 11:37:23;;;;;;;;;;;19.70;99.90;;;;;;5034558;28;19986;-79
2022/03/21 11:39:50;;;;;;;;;;;20.00;99.90;;;;;;5036030;28;19929;-77
2022/03/21 11:42:23;;;;;;;;;;;20.30;99.90;;;;;;5033748;28;19925;-77
2022/03/21 11:45:18;;;;;;;;;;;20.50;99.90;;;;;;5033097;28;19924;-78
2022/03/21 11:47:45;;;;;;;;;;;20.90;99.90;;;;;;5033388;28;19929;-77
2022/03/21 11:50:25;;;;;;;;;;;24.50;99.90;;;;;;5032633;28;20315;-78
2022/03/21 11:53:10;;;;;;;;;;;26.60;99.90;;;;;;5033710;28;19929;-78
2022/03/21 11:55:38;;;;;;;;;;;27.90;99.90;;;;;;5033027;28;19928;-78
2022/03/21 11:58:23;;;;;;;;;;;30.30;99.90;;;;;;5033117;28;20367;-78
2022/03/21 12:01:05;;;;;;;;;;;30.80;99.90;;;;;;5036332;28;19924;-78
2022/03/21 12:03:31;;;;;;;;;;;31.80;99.90;;;;;;5036455;28;19925;-78
2022/03/21 12:05:58;;;;;;;;;;;31.80;99.90;;;;;;5036757;28;19974;-78
2022/03/21 12:08:44;;;;;;;;;;;32.50;99.90;;;;;;5036507;28;19947;-78
2022/03/21 12:11:31;;;;;;;;;;;32.60;99.90;;;;;;5036087;28;19952;-78
2022/03/21 12:14:13;;;;;;;;;;;32.60;99.90;;;;;;5069558;28;20312;-79
2022/03/21 12:16:41;;;;;;;;;;;32.30;99.90;;;;;;5036936;28;19925;-78
2022/03/21 12:19:08;;;;;;;;;;;32.00;99.90;;;;;;5069642;28;19924;-78
2022/03/21 12:21:35;;;;;;;;;;;30.50;99.90;;;;;;5069276;28;19932;-78
2022/03/21 12:24:12;;;;;;;;;;;29.40;99.90;;;;;;5036714;28;19929;-78
2022/03/21 12:26:38;;;;;;;;;;;28.80;99.90;;;;;;5036523;28;19931;-78
2022/03/21 12:29:36;;;;;;;;;;;28.70;99.90;;;;;;5069143;28;20298;-78
2022/03/21 12:32:21;;;;;;;;;;;29.50;99.90;;;;;;5036168;28;19928;-78
2022/03/21 12:34:50;;;;;;;;;;;30.30;99.90;;;;;;5069241;28;19925;-78
2022/03/21 12:37:40;;;;;;;;;;;30.00;99.90;;;;;;5036095;28;20443;-78
2022/03/21 12:40:09;;;;;;;;;;;29.30;99.90;;;;;;5035990;28;20292;-78
2022/03/21 12:42:36;;;;;;;;;;;29.00;99.90;;;;;;5036228;28;19925;-78
2022/03/21 12:45:03;;;;;;;;;;;28.60;99.90;;;;;;5036772;28;19929;-77
2022/03/21 12:47:30;;;;;;;;;;;27.30;99.90;;;;;;5036901;28;19925;-80
2022/03/21 12:49:58;;;;;;;;;;;28.20;99.90;;;;;;5036687;28;19924;-80
2022/03/21 12:52:28;;;;;;;;;;;28.10;99.90;;;;;;5038948;28;20380;-80
2022/03/21 12:54:57;;;;;;;;;;;28.60;99.90;;;;;;5054865;28;19928;-80
2022/03/21 12:57:23;;;;;;;;;;;28.90;99.90;;;;;;5055177;28;19935;-80
2022/03/21 12:59:50;;;;;;;;;;;29.50;99.90;;;;;;5055025;28;19925;-80
2022/03/21 13:02:24;;;;;;;;;;;29.60;99.90;;;;;;5045520;28;19980;-80
2022/03/21 13:10:33;;;;;;;;;;;29.90;99.90;;;;;;5036262;28;19921;-79
2022/03/21 13:13:00;;;;;;;;;;;29.50;99.90;;;;;;5038161;28;19931;-80
2022/03/21 13:15:28;;;;;;;;;;;28.90;99.90;;;;;;5040846;28;20431;-82
2022/03/21 13:17:57;;;;;;;;;;;28.70;99.90;;;;;;5037581;28;19932;-80
2022/03/21 13:20:26;;;;;;;;;;;28.10;99.90;;;;;;5036970;28;20003;-80
2022/03/21 13:22:54;;;;;;;;;;;26.70;99.90;;;;;;5037891;28;19934;-80
2022/03/21 13:25:21;;;;;;;;;;;25.80;99.90;;;;;;5069514;28;19986;-81
2022/03/21 13:27:49;;;;;;;;;;;26.20;99.90;;;;;;5035368;28;19932;-81
2022/03/21 13:30:16;;;;;;;;;;;26.20;99.90;;;;;;5036233;28;19925;-80
2022/03/21 13:32:43;;;;;;;;;;;26.00;99.90;;;;;;5036172;28;19929;-80
2022/03/21 13:35:12;;;;;;;;;;;26.10;99.90;;;;;;5036976;28;20540;-81
2022/03/21 13:37:40;;;;;;;;;;;25.70;99.90;;;;;;5038168;28;19925;-80
2022/03/21 13:40:08;;;;;;;;;;;26.10;99.90;;;;;;5040145;28;19928;-81
2022/03/21 13:42:36;;;;;;;;;;;26.80;99.90;;;;;;5038927;28;19932;-82
2022/03/21 13:45:05;;;;;;;;;;;27.30;99.90;;;;;;5038471;28;19924;-81
2022/03/21 13:47:32;;;;;;;;;;;26.50;99.90;;;;;;5037769;28;19925;-82
2022/03/21 13:50:05;;;;;;;;;;;26.20;99.90;;;;;;5050212;28;19939;-82
2022/03/21 13:52:44;;;;;;;;;;;24.10;99.90;;;;;;5033087;28;19929;-82
2022/03/21 13:55:12;;;;;;;;;;;23.80;99.90;;;;;;5034460;28;19925;-79
2022/03/21 13:57:43;;;;;;;;;;;23.70;99.90;;;;;;5035657;28;19932;-80
2022/03/21 14:00:10;;;;;;;;;;;24.20;99.90;;;;;;5051512;28;19932;-80
2022/03/21 14:02:42;;;;;;;;;;;24.60;99.90;;;;;;5036695;28;19929;-80
2022/03/21 14:05:28;;;;;;;;;;;25.30;99.90;;;;;;5053731;28;20019;-80
2022/03/21 14:08:10;;;;;;;;;;;26.10;99.90;;;;;;5037010;28;19924;-80
2022/03/21 14:10:38;;;;;;;;;;;27.00;99.90;;;;;;5050066;28;19932;-78
2022/03/21 14:13:12;;;;;;;;;;;27.50;99.90;;;;;;5035793;28;19924;-78
2022/03/21 14:15:39;;;;;;;;;;;27.80;99.90;;;;;;5035852;28;20339;-74
2022/03/21 14:18:05;;;;;;;;;;;28.40;99.90;;;;;;5034284;28;20342;-77
2022/03/21 14:20:32;;;;;;;;;;;28.30;99.90;;;;;;5036523;28;19925;-79
2022/03/21 14:22:59;;;;;;;;;;;27.90;99.90;;;;;;5026713;28;19929;-75
2022/03/21 14:28:11;;;;;;;;;;;28.60;99.90;;;;;;5034976;28;19925;-77
2022/03/21 14:30:38;;;;;;;;;;;28.40;99.90;;;;;;5034418;28;19932;-77
2022/03/21 14:33:05;;;;;;;;;;;28.40;99.90;;;;;;5034967;28;19929;-77
2022/03/21 14:35:31;;;;;;;;;;;27.90;99.90;;;;;;5034605;28;19925;-78
2022/03/21 14:37:58;;;;;;;;;;;27.40;99.90;;;;;;5034318;28;19924;-77
2022/03/21 14:40:26;;;;;;;;;;;26.70;99.90;;;;;;5026372;28;20293;-77
2022/03/21 14:42:54;;;;;;;;;;;26.00;99.90;;;;;;5030680;28;19933;-77
2022/03/21 14:45:21;;;;;;;;;;;26.10;99.90;;;;;;5047852;28;19935;-76
2022/03/21 14:47:48;;;;;;;;;;;26.40;99.90;;;;;;5031756;28;19925;-77
2022/03/21 14:50:14;;;;;;;;;;;26.60;99.90;;;;;;5032697;28;19929;-76
2022/03/21 14:52:41;;;;;;;;;;;26.90;99.90;;;;;;5033197;28;19950;-76
2022/03/21 14:55:08;;;;;;;;;;;27.00;99.90;;;;;;5032999;28;19928;-76
2022/03/21 14:57:37;;;;;;;;;;;27.20;99.90;;;;;;5033043;28;20396;-76
2022/03/21 15:00:04;;;;;;;;;;;27.70;99.90;;;;;;5028077;28;19925;-76